aviador You're here:

LBWN Decoded Metar

VARNA in BULGARIA
Report Time2017-12-16 16:30:00
UTC Time2017-12-16 16:39:28
Flight Rules vfr VFR
WindVRB at 02 kt
Visibility9999 m
Phenomena:N/A
Clouds:N/A
Expected CloudBase > 2,800 ft AGL from Temp-Dew spread
CeilingNone
Temp15°C (ISA 0)
Dew Point08°C (63% RH)
AAT13.8°C
QNH1006 hPa
Density Alt558 ft
Elevation141 ft
Report Wrong Elevation
Raw Report
METAR LBWN 161630Z VRB02KT CAVOK 15/08 Q1006 NOSIG=

Extra information for LBWN:More info

Metar Taf Metar & Taf Last 4 Metars F.Rules Stats Wind Profile Meteogram Temp Stats Airport Information Weather charts Add Link Nearby VenuesMetar ALERT Operation Metar Decoded Social comments